sensor_id;sensor_type;location;lat;lon;timestamp;pressure;altitude;pressure_sealevel;temperature;humidity
61676;BME280;47574;52.090;5.244;2024-02-15T00:02:04;101631.0;;;16.15;70.91
61676;BME280;47574;52.090;5.244;2024-02-15T00:03:39;101638.0;;;16.25;70.58
61676;BME280;47574;52.090;5.244;2024-02-15T00:05:15;101635.0;;;16.59;69.3
61676;BME280;47574;52.090;5.244;2024-02-15T00:08:29;101628.0;;;16.38;69.84
61676;BME280;47574;52.090;5.244;2024-02-15T00:10:06;101624.0;;;16.32;70.03
61676;BME280;47574;52.090;5.244;2024-02-15T00:11:42;101630.0;;;16.5;69.58
61676;BME280;47574;52.090;5.244;2024-02-15T00:14:54;101628.0;;;16.7;68.8
61676;BME280;47574;52.090;5.244;2024-02-15T00:16:30;101627.0;;;16.41;69.77
61676;BME280;47574;52.090;5.244;2024-02-15T00:18:06;101625.0;;;16.04;71.09
61676;BME280;47574;52.090;5.244;2024-02-15T00:19:43;101626.0;;;16.25;70.69
61676;BME280;47574;52.090;5.244;2024-02-15T00:22:55;101627.0;;;16.57;69.22
61676;BME280;47574;52.090;5.244;2024-02-15T00:24:31;101626.0;;;16.75;68.8
61676;BME280;47574;52.090;5.244;2024-02-15T00:26:07;101631.0;;;17.05;67.73
61676;BME280;47574;52.090;5.244;2024-02-15T00:29:22;101628.0;;;16.72;68.72
61676;BME280;47574;52.090;5.244;2024-02-15T00:30:58;101627.0;;;16.71;68.64
61676;BME280;47574;52.090;5.244;2024-02-15T00:32:34;101618.0;;;16.89;68.03
61676;BME280;47574;52.090;5.244;2024-02-15T00:35:47;101621.0;;;16.62;69.05
61676;BME280;47574;52.090;5.244;2024-02-15T00:37:23;101621.0;;;16.15;70.73
61676;BME280;47574;52.090;5.244;2024-02-15T00:38:59;101624.0;;;16.47;69.39
61676;BME280;47574;52.090;5.244;2024-02-15T00:40:35;101619.0;;;16.65;69.16
61676;BME280;47574;52.090;5.244;2024-02-15T00:43:47;101620.0;;;16.43;69.49
61676;BME280;47574;52.090;5.244;2024-02-15T00:45:24;101619.0;;;16.84;68.27
61676;BME280;47574;52.090;5.244;2024-02-15T00:47:00;101619.0;;;16.95;67.8
61676;BME280;47574;52.090;5.244;2024-02-15T00:50:12;101619.0;;;16.89;67.94
61676;BME280;47574;52.090;5.244;2024-02-15T00:51:48;101612.0;;;16.5;68.95
61676;BME280;47574;52.090;5.244;2024-02-15T00:53:24;101609.0;;;17.0;67.39
61676;BME280;47574;52.090;5.244;2024-02-15T00:56:40;101609.0;;;16.77;68.17
61676;BME280;47574;52.090;5.244;2024-02-15T00:58:16;101599.0;;;17.28;66.42
61676;BME280;47574;52.090;5.244;2024-02-15T00:59:53;101603.0;;;17.09;66.97
61676;BME280;47574;52.090;5.244;2024-02-15T01:01:29;101607.0;;;17.11;66.63
61676;BME280;47574;52.090;5.244;2024-02-15T01:04:41;101599.0;;;17.16;66.72
61676;BME280;47574;52.090;5.244;2024-02-15T01:06:17;101598.0;;;17.11;66.73
61676;BME280;47574;52.090;5.244;2024-02-15T01:07:53;101599.0;;;17.27;66.36
61676;BME280;47574;52.090;5.244;2024-02-15T01:11:05;101605.0;;;16.66;67.91
61676;BME280;47574;52.090;5.244;2024-02-15T01:12:41;101599.0;;;17.18;66.55
61676;BME280;47574;52.090;5.244;2024-02-15T01:14:18;101602.0;;;17.36;65.99
61676;BME280;47574;52.090;5.244;2024-02-15T01:17:30;101600.0;;;17.3;65.86
61676;BME280;47574;52.090;5.244;2024-02-15T01:19:06;101599.0;;;17.52;65.52
61676;BME280;47574;52.090;5.244;2024-02-15T01:20:42;101595.0;;;17.38;65.69
61676;BME280;47574;52.090;5.244;2024-02-15T01:23:54;101597.0;;;17.18;66.41
61676;BME280;47574;52.090;5.244;2024-02-15T01:25:30;101593.0;;;17.34;65.77
61676;BME280;47574;52.090;5.244;2024-02-15T01:27:07;101590.0;;;17.14;66.44
61676;BME280;47574;52.090;5.244;2024-02-15T01:28:43;101595.0;;;16.9;67.38
61676;BME280;47574;52.090;5.244;2024-02-15T01:31:55;101591.0;;;16.9;67.38
61676;BME280;47574;52.090;5.244;2024-02-15T01:33:31;101592.0;;;16.75;67.98
61676;BME280;47574;52.090;5.244;2024-02-15T01:35:07;101591.0;;;16.86;67.61
61676;BME280;47574;52.090;5.244;2024-02-15T01:38:23;101586.0;;;17.31;66.09
61676;BME280;47574;52.090;5.244;2024-02-15T01:40:06;101581.0;;;17.09;66.85
61676;BME280;47574;52.090;5.244;2024-02-15T01:41:46;101593.0;;;16.93;67.38
61676;BME280;47574;52.090;5.244;2024-02-15T01:43:23;101588.0;;;17.16;66.64
61676;BME280;47574;52.090;5.244;2024-02-15T01:46:35;101598.0;;;16.75;67.98
61676;BME280;47574;52.090;5.244;2024-02-15T01:48:11;101592.0;;;17.11;66.67
61676;BME280;47574;52.090;5.244;2024-02-15T01:49:47;101590.0;;;17.13;66.69
61676;BME280;47574;52.090;5.244;2024-02-15T01:53:03;101588.0;;;17.2;66.58
61676;BME280;47574;52.090;5.244;2024-02-15T01:54:43;101584.0;;;17.09;66.84
61676;BME280;47574;52.090;5.244;2024-02-15T01:56:19;101587.0;;;17.22;66.56
61676;BME280;47574;52.090;5.244;2024-02-15T01:59:32;101584.0;;;17.36;66.27
61676;BME280;47574;52.090;5.244;2024-02-15T02:01:08;101581.0;;;17.22;66.3
61676;BME280;47574;52.090;5.244;2024-02-15T02:02:45;101578.0;;;17.02;67.33
61676;BME280;47574;52.090;5.244;2024-02-15T02:04:21;101577.0;;;16.96;67.19
61676;BME280;47574;52.090;5.244;2024-02-15T02:07:34;101575.0;;;17.03;67.03
61676;BME280;47574;52.090;5.244;2024-02-15T02:09:11;101571.0;;;16.95;67.35
61676;BME280;47574;52.090;5.244;2024-02-15T02:10:50;101570.0;;;17.18;66.69
61676;BME280;47574;52.090;5.244;2024-02-15T02:14:02;101570.0;;;17.43;65.88
61676;BME280;47574;52.090;5.244;2024-02-15T02:15:38;101565.0;;;17.52;65.67
61676;BME280;47574;52.090;5.244;2024-02-15T02:17:14;101566.0;;;17.16;66.63
61676;BME280;47574;52.090;5.244;2024-02-15T02:20:26;101566.0;;;17.25;66.22
61676;BME280;47574;52.090;5.244;2024-02-15T02:22:03;101569.0;;;17.45;65.87
61676;BME280;47574;52.090;5.244;2024-02-15T02:23:39;101564.0;;;16.93;67.02
61676;BME280;47574;52.090;5.244;2024-02-15T02:25:16;101560.0;;;17.34;65.95
61676;BME280;47574;52.090;5.244;2024-02-15T02:28:28;101557.0;;;17.16;66.3
61676;BME280;47574;52.090;5.244;2024-02-15T02:30:11;101553.0;;;17.45;65.39
61676;BME280;47574;52.090;5.244;2024-02-15T02:31:47;101551.0;;;17.14;66.3
61676;BME280;47574;52.090;5.244;2024-02-15T02:34:59;101545.0;;;16.86;67.47
61676;BME280;47574;52.090;5.244;2024-02-15T02:36:36;101549.0;;;17.03;66.56
61676;BME280;47574;52.090;5.244;2024-02-15T02:38:13;101555.0;;;16.82;67.31
61676;BME280;47574;52.090;5.244;2024-02-15T02:39:49;101556.0;;;17.06;66.37
61676;BME280;47574;52.090;5.244;2024-02-15T02:43:01;101553.0;;;17.0;66.66
61676;BME280;47574;52.090;5.244;2024-02-15T02:44:37;101557.0;;;16.8;67.44
61676;BME280;47574;52.090;5.244;2024-02-15T02:46:13;101555.0;;;16.84;67.14
61676;BME280;47574;52.090;5.244;2024-02-15T02:49:26;101548.0;;;16.82;67.36
61676;BME280;47574;52.090;5.244;2024-02-15T02:51:02;101552.0;;;16.72;67.66
61676;BME280;47574;52.090;5.244;2024-02-15T02:52:39;101544.0;;;16.8;67.49
61676;BME280;47574;52.090;5.244;2024-02-15T02:55:51;101545.0;;;16.54;68.27
61676;BME280;47574;52.090;5.244;2024-02-15T02:57:27;101548.0;;;16.75;67.5
61676;BME280;47574;52.090;5.244;2024-02-15T02:59:06;101540.0;;;16.95;66.73
61676;BME280;47574;52.090;5.244;2024-02-15T03:02:19;101540.0;;;16.88;66.92
61676;BME280;47574;52.090;5.244;2024-02-15T03:03:55;101546.0;;;17.04;66.52
61676;BME280;47574;52.090;5.244;2024-02-15T03:05:32;101549.0;;;16.68;67.62
61676;BME280;47574;52.090;5.244;2024-02-15T03:07:08;101543.0;;;17.03;66.55
61676;BME280;47574;52.090;5.244;2024-02-15T03:10:20;101540.0;;;17.16;65.86
61676;BME280;47574;52.090;5.244;2024-02-15T03:11:56;101539.0;;;17.0;66.24
61676;BME280;47574;52.090;5.244;2024-02-15T03:13:32;101536.0;;;17.11;65.92
61676;BME280;47574;52.090;5.244;2024-02-15T03:16:45;101537.0;;;17.0;66.34
61676;BME280;47574;52.090;5.244;2024-02-15T03:18:21;101537.0;;;17.02;66.19
61676;BME280;47574;52.090;5.244;2024-02-15T03:19:57;101538.0;;;16.9;66.62
61676;BME280;47574;52.090;5.244;2024-02-15T03:23:09;101542.0;;;16.96;66.27
61676;BME280;47574;52.090;5.244;2024-02-15T03:24:45;101539.0;;;17.0;66.11
61676;BME280;47574;52.090;5.244;2024-02-15T03:26:29;101536.0;;;17.16;65.91
61676;BME280;47574;52.090;5.244;2024-02-15T03:28:05;101538.0;;;17.16;65.77
61676;BME280;47574;52.090;5.244;2024-02-15T03:31:17;101533.0;;;17.09;65.97
61676;BME280;47574;52.090;5.244;2024-02-15T03:32:57;101533.0;;;17.02;66.05
61676;BME280;47574;52.090;5.244;2024-02-15T03:34:34;101533.0;;;17.27;65.13
61676;BME280;47574;52.090;5.244;2024-02-15T03:37:46;101533.0;;;17.02;66.06
61676;BME280;47574;52.090;5.244;2024-02-15T03:39:22;101530.0;;;16.86;66.56
61676;BME280;47574;52.090;5.244;2024-02-15T03:40:58;101533.0;;;17.09;65.64
61676;BME280;47574;52.090;5.244;2024-02-15T03:42:34;101532.0;;;16.73;66.66
61676;BME280;47574;52.090;5.244;2024-02-15T03:45:48;101530.0;;;16.79;66.53
61676;BME280;47574;52.090;5.244;2024-02-15T03:47:24;101526.0;;;16.81;66.64
61676;BME280;47574;52.090;5.244;2024-02-15T03:49:00;101532.0;;;16.86;66.17
61676;BME280;47574;52.090;5.244;2024-02-15T03:52:12;101530.0;;;16.48;67.52
61676;BME280;47574;52.090;5.244;2024-02-15T03:53:48;101526.0;;;16.62;67.1
61676;BME280;47574;52.090;5.244;2024-02-15T03:55:24;101524.0;;;16.89;66.45
61676;BME280;47574;52.090;5.244;2024-02-15T03:58:37;101522.0;;;16.84;66.52
61676;BME280;47574;52.090;5.244;2024-02-15T04:00:14;101518.0;;;16.73;67.03
61676;BME280;47574;52.090;5.244;2024-02-15T04:01:51;101525.0;;;16.64;67.22
61676;BME280;47574;52.090;5.244;2024-02-15T04:05:03;101522.0;;;16.68;67.3
61676;BME280;47574;52.090;5.244;2024-02-15T04:06:39;101520.0;;;16.61;67.47
61676;BME280;47574;52.090;5.244;2024-02-15T04:08:15;101518.0;;;16.5;68.0
61676;BME280;47574;52.090;5.244;2024-02-15T04:09:51;101521.0;;;16.78;67.11
61676;BME280;47574;52.090;5.244;2024-02-15T04:13:03;101521.0;;;16.78;67.12
61676;BME280;47574;52.090;5.244;2024-02-15T04:14:40;101527.0;;;16.78;67.25
61676;BME280;47574;52.090;5.244;2024-02-15T04:16:16;101524.0;;;16.9;67.09
61676;BME280;47574;52.090;5.244;2024-02-15T04:19:28;101522.0;;;17.04;66.66
61676;BME280;47574;52.090;5.244;2024-02-15T04:21:04;101519.0;;;17.11;66.12
61676;BME280;47574;52.090;5.244;2024-02-15T04:22:40;101518.0;;;16.96;66.63
61676;BME280;47574;52.090;5.244;2024-02-15T04:25:52;101511.0;;;16.75;67.38
61676;BME280;47574;52.090;5.244;2024-02-15T04:27:28;101506.0;;;16.82;67.19
61676;BME280;47574;52.090;5.244;2024-02-15T04:29:05;101506.0;;;16.77;67.48
61676;BME280;47574;52.090;5.244;2024-02-15T04:32:17;101513.0;;;16.59;67.81
61676;BME280;47574;52.090;5.244;2024-02-15T04:33:53;101515.0;;;16.81;67.35
61676;BME280;47574;52.090;5.244;2024-02-15T04:35:29;101513.0;;;17.03;66.56
61676;BME280;47574;52.090;5.244;2024-02-15T04:37:05;101509.0;;;16.9;67.08
61676;BME280;47574;52.090;5.244;2024-02-15T04:40:17;101505.0;;;16.82;67.27
61676;BME280;47574;52.090;5.244;2024-02-15T04:41:53;101503.0;;;17.02;66.66
61676;BME280;47574;52.090;5.244;2024-02-15T04:43:30;101505.0;;;17.0;66.77
61676;BME280;47574;52.090;5.244;2024-02-15T04:46:43;101507.0;;;16.9;67.06
61676;BME280;47574;52.090;5.244;2024-02-15T04:48:19;101511.0;;;17.18;66.05
61676;BME280;47574;52.090;5.244;2024-02-15T04:49:55;101511.0;;;16.87;66.97
61676;BME280;47574;52.090;5.244;2024-02-15T04:53:07;101508.0;;;16.97;66.77
61676;BME280;47574;52.090;5.244;2024-02-15T04:54:43;101501.0;;;16.95;67.16
61676;BME280;47574;52.090;5.244;2024-02-15T04:56:23;101499.0;;;17.12;66.58
61676;BME280;47574;52.090;5.244;2024-02-15T04:57:59;101493.0;;;16.55;68.27
61676;BME280;47574;52.090;5.244;2024-02-15T05:01:12;101489.0;;;16.64;68.22
61676;BME280;47574;52.090;5.244;2024-02-15T05:02:49;101487.0;;;16.8;67.66
61676;BME280;47574;52.090;5.244;2024-02-15T05:04:25;101490.0;;;17.0;67.03
61676;BME280;47574;52.090;5.244;2024-02-15T05:07:38;101490.0;;;16.84;67.6
61676;BME280;47574;52.090;5.244;2024-02-15T05:09:14;101491.0;;;17.0;67.23
61676;BME280;47574;52.090;5.244;2024-02-15T05:10:50;101503.0;;;16.5;68.61
61676;BME280;47574;52.090;5.244;2024-02-15T05:14:02;101505.0;;;16.22;70.02
61676;BME280;47574;52.090;5.244;2024-02-15T05:15:38;101509.0;;;16.48;69.19
61676;BME280;47574;52.090;5.244;2024-02-15T05:17:14;101513.0;;;16.5;69.0
61676;BME280;47574;52.090;5.244;2024-02-15T05:18:50;101510.0;;;16.52;69.31
61676;BME280;47574;52.090;5.244;2024-02-15T05:22:02;101510.0;;;16.75;68.7
61676;BME280;47574;52.090;5.244;2024-02-15T05:23:39;101511.0;;;16.0;71.31
61676;BME280;47574;52.090;5.244;2024-02-15T05:25:15;101507.0;;;16.61;69.11
61676;BME280;47574;52.090;5.244;2024-02-15T05:28:27;101506.0;;;16.47;69.55
61676;BME280;47574;52.090;5.244;2024-02-15T05:30:04;101503.0;;;16.28;70.38
61676;BME280;47574;52.090;5.244;2024-02-15T05:31:40;101492.0;;;16.14;70.88
61676;BME280;47574;52.090;5.244;2024-02-15T05:34:53;101478.0;;;16.37;69.94
61676;BME280;47574;52.090;5.244;2024-02-15T05:36:29;101472.0;;;16.8;68.69
61676;BME280;47574;52.090;5.244;2024-02-15T05:38:05;101455.0;;;16.61;69.34
61676;BME280;47574;52.090;5.244;2024-02-15T05:41:21;101433.0;;;16.72;68.91
61676;BME280;47574;52.090;5.244;2024-02-15T05:42:57;101405.0;;;16.82;68.49
61676;BME280;47574;52.090;5.244;2024-02-15T05:44:33;101390.0;;;16.95;68.16
61676;BME280;47574;52.090;5.244;2024-02-15T05:46:10;101416.0;;;16.84;68.67
61676;BME280;47574;52.090;5.244;2024-02-15T05:49:22;101437.0;;;16.79;68.69
61676;BME280;47574;52.090;5.244;2024-02-15T05:50:58;101446.0;;;17.16;67.53
61676;BME280;47574;52.090;5.244;2024-02-15T05:52:38;101440.0;;;16.78;68.62
61676;BME280;47574;52.090;5.244;2024-02-15T05:55:50;101438.0;;;16.88;68.42
61676;BME280;47574;52.090;5.244;2024-02-15T05:57:26;101435.0;;;16.65;68.99
61676;BME280;47574;52.090;5.244;2024-02-15T05:59:02;101438.0;;;16.79;68.88
61676;BME280;47574;52.090;5.244;2024-02-15T06:02:14;101438.0;;;16.66;69.25
61676;BME280;47574;52.090;5.244;2024-02-15T06:03:50;101443.0;;;16.77;69.03
61676;BME280;47574;52.090;5.244;2024-02-15T06:05:26;101449.0;;;16.79;68.89
61676;BME280;47574;52.090;5.244;2024-02-15T06:07:03;101446.0;;;16.86;68.72
61676;BME280;47574;52.090;5.244;2024-02-15T06:10:15;101445.0;;;16.68;69.28
61676;BME280;47574;52.090;5.244;2024-02-15T06:11:51;101444.0;;;16.66;69.3
61676;BME280;47574;52.090;5.244;2024-02-15T06:13:27;101447.0;;;16.86;68.73
61676;BME280;47574;52.090;5.244;2024-02-15T06:16:44;101449.0;;;16.72;68.95
61676;BME280;47574;52.090;5.244;2024-02-15T06:18:19;101443.0;;;16.59;69.55
61676;BME280;47574;52.090;5.244;2024-02-15T06:19:56;101448.0;;;16.68;69.17
61676;BME280;47574;52.090;5.244;2024-02-15T06:23:09;101451.0;;;16.57;69.52
61676;BME280;47574;52.090;5.244;2024-02-15T06:24:45;101455.0;;;16.7;69.3
61676;BME280;47574;52.090;5.244;2024-02-15T06:26:21;101455.0;;;16.52;69.83
61676;BME280;47574;52.090;5.244;2024-02-15T06:27:57;101451.0;;;16.61;69.55
61676;BME280;47574;52.090;5.244;2024-02-15T06:31:10;101451.0;;;17.0;68.1
61676;BME280;47574;52.090;5.244;2024-02-15T06:32:46;101452.0;;;16.88;68.45
61676;BME280;47574;52.090;5.244;2024-02-15T06:34:22;101449.0;;;16.87;68.53
61676;BME280;47574;52.090;5.244;2024-02-15T06:37:35;101452.0;;;16.41;70.02
61676;BME280;47574;52.090;5.244;2024-02-15T06:39:12;101449.0;;;16.97;68.23
61676;BME280;47574;52.090;5.244;2024-02-15T06:40:48;101445.0;;;16.72;68.7
61676;BME280;47574;52.090;5.244;2024-02-15T06:44:00;101435.0;;;16.7;69.05
61676;BME280;47574;52.090;5.244;2024-02-15T06:45:36;101434.0;;;16.77;69.08
61676;BME280;47574;52.090;5.244;2024-02-15T06:47:12;101430.0;;;16.78;68.99
61676;BME280;47574;52.090;5.244;2024-02-15T06:48:49;101431.0;;;16.79;68.91
61676;BME280;47574;52.090;5.244;2024-02-15T06:52:01;101427.0;;;16.59;69.41
61676;BME280;47574;52.090;5.244;2024-02-15T06:53:38;101426.0;;;16.78;68.94
61676;BME280;47574;52.090;5.244;2024-02-15T06:55:15;101435.0;;;16.89;68.52
61676;BME280;47574;52.090;5.244;2024-02-15T06:58:27;101434.0;;;16.82;68.86
61676;BME280;47574;52.090;5.244;2024-02-15T07:00:04;101435.0;;;16.77;69.12
61676;BME280;47574;52.090;5.244;2024-02-15T07:01:40;101430.0;;;16.68;69.25
61676;BME280;47574;52.090;5.244;2024-02-15T07:04:52;101433.0;;;16.66;69.31
61676;BME280;47574;52.090;5.244;2024-02-15T07:06:28;101436.0;;;17.03;68.16
61676;BME280;47574;52.090;5.244;2024-02-15T07:08:05;101437.0;;;17.52;66.67
61676;BME280;47574;52.090;5.244;2024-02-15T07:09:42;101444.0;;;16.97;68.17
61676;BME280;47574;52.090;5.244;2024-02-15T07:12:54;101446.0;;;16.61;69.36
61676;BME280;47574;52.090;5.244;2024-02-15T07:14:30;101442.0;;;16.9;68.41
61676;BME280;47574;52.090;5.244;2024-02-15T07:16:07;101437.0;;;17.11;67.83
61676;BME280;47574;52.090;5.244;2024-02-15T07:19:19;101441.0;;;17.07;67.97
61676;BME280;47574;52.090;5.244;2024-02-15T07:20:55;101441.0;;;17.02;67.98
61676;BME280;47574;52.090;5.244;2024-02-15T07:22:31;101450.0;;;16.8;68.86
61676;BME280;47574;52.090;5.244;2024-02-15T07:25:44;101460.0;;;16.73;68.92
61676;BME280;47574;52.090;5.244;2024-02-15T07:27:20;101468.0;;;16.64;69.5
61676;BME280;47574;52.090;5.244;2024-02-15T07:28:56;101473.0;;;16.48;70.17
61676;BME280;47574;52.090;5.244;2024-02-15T07:32:08;101480.0;;;16.73;69.19
61676;BME280;47574;52.090;5.244;2024-02-15T07:33:44;101488.0;;;16.34;70.64
61676;BME280;47574;52.090;5.244;2024-02-15T07:35:20;101489.0;;;16.72;69.62
61676;BME280;47574;52.090;5.244;2024-02-15T07:36:56;101474.0;;;16.21;71.41
61676;BME280;47574;52.090;5.244;2024-02-15T07:40:09;101433.0;;;16.93;69.16
61676;BME280;47574;52.090;5.244;2024-02-15T07:41:46;101471.0;;;16.89;68.99
61676;BME280;47574;52.090;5.244;2024-02-15T07:43:22;101471.0;;;16.5;70.49
61676;BME280;47574;52.090;5.244;2024-02-15T07:46:37;101465.0;;;16.87;69.31
61676;BME280;47574;52.090;5.244;2024-02-15T07:48:13;101461.0;;;16.61;70.05
61676;BME280;47574;52.090;5.244;2024-02-15T07:49:49;101464.0;;;16.9;69.08
61676;BME280;47574;52.090;5.244;2024-02-15T07:53:01;101473.0;;;16.82;69.3
61676;BME280;47574;52.090;5.244;2024-02-15T07:54:37;101480.0;;;16.39;70.69
61676;BME280;47574;52.090;5.244;2024-02-15T07:56:17;101480.0;;;16.86;69.55
61676;BME280;47574;52.090;5.244;2024-02-15T07:57:53;101477.0;;;16.66;69.92
61676;BME280;47574;52.090;5.244;2024-02-15T08:01:06;101469.0;;;16.61;70.16
61676;BME280;47574;52.090;5.244;2024-02-15T08:02:42;101459.0;;;17.02;68.87
61676;BME280;47574;52.090;5.244;2024-02-15T08:04:19;101441.0;;;16.66;70.05
61676;BME280;47574;52.090;5.244;2024-02-15T08:07:31;101436.0;;;16.56;70.41
61676;BME280;47574;52.090;5.244;2024-02-15T08:09:07;101446.0;;;16.56;70.63
61676;BME280;47574;52.090;5.244;2024-02-15T08:10:43;101451.0;;;16.38;71.19
61676;BME280;47574;52.090;5.244;2024-02-15T08:13:56;101443.0;;;16.43;71.22
61676;BME280;47574;52.090;5.244;2024-02-15T08:15:32;101435.0;;;16.86;69.73
61676;BME280;47574;52.090;5.244;2024-02-15T08:17:08;101430.0;;;16.52;70.66
61676;BME280;47574;52.090;5.244;2024-02-15T08:18:45;101426.0;;;16.39;71.19
61676;BME280;47574;52.090;5.244;2024-02-15T08:21:57;101441.0;;;16.68;70.24
61676;BME280;47574;52.090;5.244;2024-02-15T08:23:38;101449.0;;;16.7;70.22
61676;BME280;47574;52.090;5.244;2024-02-15T08:25:15;101441.0;;;16.39;70.94
61676;BME280;47574;52.090;5.244;2024-02-15T08:28:26;101447.0;;;16.63;70.66
61676;BME280;47574;52.090;5.244;2024-02-15T08:30:04;101448.0;;;16.93;69.41
61676;BME280;47574;52.090;5.244;2024-02-15T08:31:40;101453.0;;;16.93;69.33
61676;BME280;47574;52.090;5.244;2024-02-15T08:34:53;101455.0;;;17.18;68.74
61676;BME280;47574;52.090;5.244;2024-02-15T08:36:29;101447.0;;;17.04;69.03
61676;BME280;47574;52.090;5.244;2024-02-15T08:38:05;101437.0;;;16.95;69.19
61676;BME280;47574;52.090;5.244;2024-02-15T08:39:41;101435.0;;;17.0;69.3
61676;BME280;47574;52.090;5.244;2024-02-15T08:42:53;101430.0;;;16.75;70.06
61676;BME280;47574;52.090;5.244;2024-02-15T08:44:30;101420.0;;;17.04;69.25
61676;BME280;47574;52.090;5.244;2024-02-15T08:46:06;101422.0;;;17.14;68.86
61676;BME280;47574;52.090;5.244;2024-02-15T08:49:19;101419.0;;;16.86;69.62
61676;BME280;47574;52.090;5.244;2024-02-15T08:50:55;101413.0;;;16.88;69.49
61676;BME280;47574;52.090;5.244;2024-02-15T08:52:34;101410.0;;;16.88;69.77
61676;BME280;47574;52.090;5.244;2024-02-15T08:55:47;101408.0;;;16.65;70.47
61676;BME280;47574;52.090;5.244;2024-02-15T08:57:23;101413.0;;;16.61;70.66
61676;BME280;47574;52.090;5.244;2024-02-15T08:58:59;101416.0;;;16.68;70.5
61676;BME280;47574;52.090;5.244;2024-02-15T09:00:36;101423.0;;;17.07;69.42
61676;BME280;47574;52.090;5.244;2024-02-15T09:03:51;101425.0;;;16.81;70.09
61676;BME280;47574;52.090;5.244;2024-02-15T09:05:27;101426.0;;;16.77;70.37
61676;BME280;47574;52.090;5.244;2024-02-15T09:07:03;101426.0;;;16.68;70.48
61676;BME280;47574;52.090;5.244;2024-02-15T09:10:16;101420.0;;;16.3;71.8
61676;BME280;47574;52.090;5.244;2024-02-15T09:11:52;101424.0;;;16.86;70.3
61676;BME280;47574;52.090;5.244;2024-02-15T09:13:28;101430.0;;;16.84;69.74
61676;BME280;47574;52.090;5.244;2024-02-15T09:16:41;101432.0;;;16.81;70.02
61676;BME280;47574;52.090;5.244;2024-02-15T09:18:18;101431.0;;;16.54;71.11
61676;BME280;47574;52.090;5.244;2024-02-15T09:21:30;101423.0;;;17.0;69.39
61676;BME280;47574;52.090;5.244;2024-02-15T09:24:42;101424.0;;;16.84;69.92
61676;BME280;47574;52.090;5.244;2024-02-15T09:26:18;101421.0;;;16.75;70.17
61676;BME280;47574;52.090;5.244;2024-02-15T09:27:54;101417.0;;;16.97;69.72
61676;BME280;47574;52.090;5.244;2024-02-15T09:31:06;101419.0;;;17.13;68.98
61676;BME280;47574;52.090;5.244;2024-02-15T09:32:43;101430.0;;;16.93;69.47
61676;BME280;47574;52.090;5.244;2024-02-15T09:34:20;101431.0;;;17.0;69.31
61676;BME280;47574;52.090;5.244;2024-02-15T09:37:32;101426.0;;;17.07;69.31
61676;BME280;47574;52.090;5.244;2024-02-15T09:39:08;101420.0;;;17.14;68.92
61676;BME280;47574;52.090;5.244;2024-02-15T09:40:44;101426.0;;;17.16;68.97
61676;BME280;47574;52.090;5.244;2024-02-15T09:44:00;101424.0;;;17.29;68.56
61676;BME280;47574;52.090;5.244;2024-02-15T09:45:36;101421.0;;;17.14;68.69
61676;BME280;47574;52.090;5.244;2024-02-15T09:47:15;101421.0;;;17.03;68.95
61676;BME280;47574;52.090;5.244;2024-02-15T09:48:56;101424.0;;;17.09;69.19
61676;BME280;47574;52.090;5.244;2024-02-15T09:52:11;101428.0;;;17.45;68.19
61676;BME280;47574;52.090;5.244;2024-02-15T09:53:47;101423.0;;;17.5;67.74
61676;BME280;47574;52.090;5.244;2024-02-15T09:55:24;101424.0;;;17.27;68.36
61676;BME280;47574;52.090;5.244;2024-02-15T09:58:38;101421.0;;;17.43;67.74
61676;BME280;47574;52.090;5.244;2024-02-15T10:00:18;101423.0;;;17.07;68.92
61676;BME280;47574;52.090;5.244;2024-02-15T10:01:58;101430.0;;;17.18;68.74
61676;BME280;47574;52.090;5.244;2024-02-15T10:03:37;101422.0;;;17.52;67.58
61676;BME280;47574;52.090;5.244;2024-02-15T10:06:50;101431.0;;;17.41;67.87
61676;BME280;47574;52.090;5.244;2024-02-15T10:08:26;101430.0;;;17.09;68.56
61676;BME280;47574;52.090;5.244;2024-02-15T10:10:14;101431.0;;;17.43;67.72
61676;BME280;47574;52.090;5.244;2024-02-15T10:11:53;101428.0;;;17.41;67.75
61676;BME280;47574;52.090;5.244;2024-02-15T10:15:07;101430.0;;;17.43;67.31
61676;BME280;47574;52.090;5.244;2024-02-15T10:16:43;101428.0;;;17.36;67.73
61676;BME280;47574;52.090;5.244;2024-02-15T10:18:20;101431.0;;;17.05;68.52
61676;BME280;47574;52.090;5.244;2024-02-15T10:21:41;101432.0;;;17.39;67.83
61676;BME280;47574;52.090;5.244;2024-02-15T10:23:17;101436.0;;;16.95;68.53
61676;BME280;47574;52.090;5.244;2024-02-15T10:25:10;101433.0;;;17.32;67.87
61676;BME280;47574;52.090;5.244;2024-02-15T10:26:48;101433.0;;;17.45;67.8
61676;BME280;47574;52.090;5.244;2024-02-15T10:30:14;101436.0;;;17.39;67.78
61676;BME280;47574;52.090;5.244;2024-02-15T10:31:53;101431.0;;;17.21;68.36
61676;BME280;47574;52.090;5.244;2024-02-15T10:33:29;101430.0;;;17.45;67.5
61676;BME280;47574;52.090;5.244;2024-02-15T10:35:06;101432.0;;;17.5;67.44
61676;BME280;47574;52.090;5.244;2024-02-15T10:38:25;101427.0;;;17.36;67.41
61676;BME280;47574;52.090;5.244;2024-02-15T10:40:05;101423.0;;;17.37;67.83
61676;BME280;47574;52.090;5.244;2024-02-15T10:41:41;101418.0;;;17.75;66.53
61676;BME280;47574;52.090;5.244;2024-02-15T10:43:18;101418.0;;;17.61;67.0
61676;BME280;47574;52.090;5.244;2024-02-15T10:46:33;101422.0;;;17.5;67.48
61676;BME280;47574;52.090;5.244;2024-02-15T10:48:09;101422.0;;;17.77;66.83
61676;BME280;47574;52.090;5.244;2024-02-15T10:49:45;101424.0;;;17.37;67.83
61676;BME280;47574;52.090;5.244;2024-02-15T10:53:05;101413.0;;;17.62;66.83
61676;BME280;47574;52.090;5.244;2024-02-15T10:55:01;101411.0;;;17.61;67.2
61676;BME280;47574;52.090;5.244;2024-02-15T10:56:43;101412.0;;;17.39;67.61
61676;BME280;47574;52.090;5.244;2024-02-15T10:58:20;101409.0;;;17.78;66.86
61676;BME280;47574;52.090;5.244;2024-02-15T10:59:59;101409.0;;;17.88;66.48
61676;BME280;47574;52.090;5.244;2024-02-15T11:03:20;101414.0;;;17.21;67.8
61676;BME280;47574;52.090;5.244;2024-02-15T11:05:02;101411.0;;;17.45;67.74
61676;BME280;47574;52.090;5.244;2024-02-15T11:06:43;101410.0;;;17.46;68.05
61676;BME280;47574;52.090;5.244;2024-02-15T11:08:19;101411.0;;;17.3;67.99